sensor_id;sensor_type;location;lat;lon;timestamp;temperature;humidity
10572;DHT22;5334;48.928;12.704;2023-11-19T00:01:57;4.00;99.90
10572;DHT22;5334;48.928;12.704;2023-11-19T00:04:22;3.80;99.90
10572;DHT22;5334;48.928;12.704;2023-11-19T00:06:48;4.60;99.90
10572;DHT22;5334;48.928;12.704;2023-11-19T00:09:14;4.00;99.90
10572;DHT22;5334;48.928;12.704;2023-11-19T00:11:42;3.90;99.90
10572;DHT22;5334;48.928;12.704;2023-11-19T00:16:34;4.00;99.90
10572;DHT22;5334;48.928;12.704;2023-11-19T00:19:00;3.80;99.90
10572;DHT22;5334;48.928;12.704;2023-11-19T00:21:26;4.00;99.90
10572;DHT22;5334;48.928;12.704;2023-11-19T00:23:54;4.00;99.90
10572;DHT22;5334;48.928;12.704;2023-11-19T00:26:20;3.90;99.90
10572;DHT22;5334;48.928;12.704;2023-11-19T00:28:45;3.90;99.90
10572;DHT22;5334;48.928;12.704;2023-11-19T00:31:13;4.10;99.90
10572;DHT22;5334;48.928;12.704;2023-11-19T00:33:39;4.10;99.90
10572;DHT22;5334;48.928;12.704;2023-11-19T00:36:05;3.90;99.90
10572;DHT22;5334;48.928;12.704;2023-11-19T00:38:31;3.90;99.90
10572;DHT22;5334;48.928;12.704;2023-11-19T00:40:57;3.90;99.90
10572;DHT22;5334;48.928;12.704;2023-11-19T00:43:23;3.90;99.90
10572;DHT22;5334;48.928;12.704;2023-11-19T00:48:17;3.90;99.90
10572;DHT22;5334;48.928;12.704;2023-11-19T00:50:43;3.90;99.90
10572;DHT22;5334;48.928;12.704;2023-11-19T00:53:10;3.80;99.90
10572;DHT22;5334;48.928;12.704;2023-11-19T00:55:36;3.80;99.90
10572;DHT22;5334;48.928;12.704;2023-11-19T00:58:02;4.10;99.90
10572;DHT22;5334;48.928;12.704;2023-11-19T01:00:28;3.80;99.90
10572;DHT22;5334;48.928;12.704;2023-11-19T01:02:54;3.80;99.90
10572;DHT22;5334;48.928;12.704;2023-11-19T01:05:20;3.90;99.90
10572;DHT22;5334;48.928;12.704;2023-11-19T01:07:49;3.80;99.90
10572;DHT22;5334;48.928;12.704;2023-11-19T01:10:15;3.80;99.90
10572;DHT22;5334;48.928;12.704;2023-11-19T01:12:42;3.70;99.90
10572;DHT22;5334;48.928;12.704;2023-11-19T01:15:08;3.70;99.90
10572;DHT22;5334;48.928;12.704;2023-11-19T01:17:33;3.70;99.90
10572;DHT22;5334;48.928;12.704;2023-11-19T01:19:59;3.70;99.90
10572;DHT22;5334;48.928;12.704;2023-11-19T01:22:25;4.60;99.90
10572;DHT22;5334;48.928;12.704;2023-11-19T01:24:51;3.70;99.90
10572;DHT22;5334;48.928;12.704;2023-11-19T01:27:17;3.70;99.90
10572;DHT22;5334;48.928;12.704;2023-11-19T01:29:43;3.70;99.90
10572;DHT22;5334;48.928;12.704;2023-11-19T01:32:09;3.70;99.90
10572;DHT22;5334;48.928;12.704;2023-11-19T01:34:34;3.70;99.90
10572;DHT22;5334;48.928;12.704;2023-11-19T01:37:01;3.70;99.90
10572;DHT22;5334;48.928;12.704;2023-11-19T01:41:53;3.70;99.90
10572;DHT22;5334;48.928;12.704;2023-11-19T01:44:19;3.70;99.90
10572;DHT22;5334;48.928;12.704;2023-11-19T01:46:48;3.70;99.90
10572;DHT22;5334;48.928;12.704;2023-11-19T01:49:15;3.70;99.90
10572;DHT22;5334;48.928;12.704;2023-11-19T01:51:43;4.00;99.90
10572;DHT22;5334;48.928;12.704;2023-11-19T01:54:09;3.50;99.90
10572;DHT22;5334;48.928;12.704;2023-11-19T01:56:36;3.70;99.90
10572;DHT22;5334;48.928;12.704;2023-11-19T01:59:03;3.70;99.90
10572;DHT22;5334;48.928;12.704;2023-11-19T02:01:29;3.70;99.90
10572;DHT22;5334;48.928;12.704;2023-11-19T02:06:24;3.70;99.90
10572;DHT22;5334;48.928;12.704;2023-11-19T02:08:50;3.70;99.90
10572;DHT22;5334;48.928;12.704;2023-11-19T02:11:15;3.70;99.90
10572;DHT22;5334;48.928;12.704;2023-11-19T02:13:41;3.70;99.90
10572;DHT22;5334;48.928;12.704;2023-11-19T02:16:07;3.70;99.90
10572;DHT22;5334;48.928;12.704;2023-11-19T02:21:00;3.70;99.90
10572;DHT22;5334;48.928;12.704;2023-11-19T02:23:27;3.70;99.90
10572;DHT22;5334;48.928;12.704;2023-11-19T02:26:19;3.70;99.90
10572;DHT22;5334;48.928;12.704;2023-11-19T02:31:14;3.70;99.90
10572;DHT22;5334;48.928;12.704;2023-11-19T02:33:40;3.70;99.90
10572;DHT22;5334;48.928;12.704;2023-11-19T02:36:06;3.70;99.90
10572;DHT22;5334;48.928;12.704;2023-11-19T02:38:35;3.70;99.90
10572;DHT22;5334;48.928;12.704;2023-11-19T02:41:04;3.70;99.90
10572;DHT22;5334;48.928;12.704;2023-11-19T02:43:34;3.70;99.90
10572;DHT22;5334;48.928;12.704;2023-11-19T02:46:03;3.80;99.90
10572;DHT22;5334;48.928;12.704;2023-11-19T02:48:35;3.80;99.90
10572;DHT22;5334;48.928;12.704;2023-11-19T02:51:04;3.80;99.90
10572;DHT22;5334;48.928;12.704;2023-11-19T02:53:30;3.80;99.90
10572;DHT22;5334;48.928;12.704;2023-11-19T02:55:57;3.70;99.90
10572;DHT22;5334;48.928;12.704;2023-11-19T02:58:37;3.80;99.90
10572;DHT22;5334;48.928;12.704;2023-11-19T03:01:04;3.50;99.90
10572;DHT22;5334;48.928;12.704;2023-11-19T03:03:39;3.70;99.90
10572;DHT22;5334;48.928;12.704;2023-11-19T03:06:06;3.70;99.90
10572;DHT22;5334;48.928;12.704;2023-11-19T03:08:35;3.70;99.90
10572;DHT22;5334;48.928;12.704;2023-11-19T03:11:01;3.70;99.90
10572;DHT22;5334;48.928;12.704;2023-11-19T03:13:27;3.70;99.90
10572;DHT22;5334;48.928;12.704;2023-11-19T03:15:53;3.70;99.90
10572;DHT22;5334;48.928;12.704;2023-11-19T03:18:21;3.70;99.90
10572;DHT22;5334;48.928;12.704;2023-11-19T03:20:47;3.60;99.90
10572;DHT22;5334;48.928;12.704;2023-11-19T03:23:13;3.70;99.90
10572;DHT22;5334;48.928;12.704;2023-11-19T03:25:39;3.80;99.90
10572;DHT22;5334;48.928;12.704;2023-11-19T03:28:04;3.80;99.90
10572;DHT22;5334;48.928;12.704;2023-11-19T03:30:30;3.80;99.90
10572;DHT22;5334;48.928;12.704;2023-11-19T03:32:57;3.80;99.90
10572;DHT22;5334;48.928;12.704;2023-11-19T03:35:23;3.80;99.90
10572;DHT22;5334;48.928;12.704;2023-11-19T03:37:50;3.80;99.90
10572;DHT22;5334;48.928;12.704;2023-11-19T03:45:09;3.80;99.90
10572;DHT22;5334;48.928;12.704;2023-11-19T03:47:35;3.70;99.90
10572;DHT22;5334;48.928;12.704;2023-11-19T03:50:01;3.80;99.90
10572;DHT22;5334;48.928;12.704;2023-11-19T03:52:28;3.90;99.90
10572;DHT22;5334;48.928;12.704;2023-11-19T03:54:54;3.80;99.90
10572;DHT22;5334;48.928;12.704;2023-11-19T03:57:21;3.80;99.90
10572;DHT22;5334;48.928;12.704;2023-11-19T03:59:47;3.80;99.90
10572;DHT22;5334;48.928;12.704;2023-11-19T04:07:05;3.90;99.90
10572;DHT22;5334;48.928;12.704;2023-11-19T04:09:31;3.80;99.90
10572;DHT22;5334;48.928;12.704;2023-11-19T04:12:00;3.80;99.90
10572;DHT22;5334;48.928;12.704;2023-11-19T04:14:26;3.90;99.90
10572;DHT22;5334;48.928;12.704;2023-11-19T04:16:52;3.90;99.90
10572;DHT22;5334;48.928;12.704;2023-11-19T04:19:19;3.90;99.90
10572;DHT22;5334;48.928;12.704;2023-11-19T04:21:45;3.80;99.90
10572;DHT22;5334;48.928;12.704;2023-11-19T04:24:11;3.80;99.90
10572;DHT22;5334;48.928;12.704;2023-11-19T04:26:45;3.70;99.90
10572;DHT22;5334;48.928;12.704;2023-11-19T04:29:14;3.90;99.90
10572;DHT22;5334;48.928;12.704;2023-11-19T04:31:40;4.20;99.90
10572;DHT22;5334;48.928;12.704;2023-11-19T04:34:06;3.90;99.90
10572;DHT22;5334;48.928;12.704;2023-11-19T04:36:35;3.90;99.90
10572;DHT22;5334;48.928;12.704;2023-11-19T04:39:01;3.90;99.90
10572;DHT22;5334;48.928;12.704;2023-11-19T04:41:27;3.90;99.90
10572;DHT22;5334;48.928;12.704;2023-11-19T04:43:56;3.90;99.90
10572;DHT22;5334;48.928;12.704;2023-11-19T04:46:22;4.00;99.90
10572;DHT22;5334;48.928;12.704;2023-11-19T04:48:49;4.00;99.90
10572;DHT22;5334;48.928;12.704;2023-11-19T04:51:15;4.00;99.90
10572;DHT22;5334;48.928;12.704;2023-11-19T04:53:41;4.00;99.90
10572;DHT22;5334;48.928;12.704;2023-11-19T04:56:10;4.00;99.90
10572;DHT22;5334;48.928;12.704;2023-11-19T04:58:36;4.00;99.90
10572;DHT22;5334;48.928;12.704;2023-11-19T05:01:06;4.30;99.90
10572;DHT22;5334;48.928;12.704;2023-11-19T05:03:32;4.00;99.90
10572;DHT22;5334;48.928;12.704;2023-11-19T05:05:58;4.00;99.90
10572;DHT22;5334;48.928;12.704;2023-11-19T05:08:24;4.00;99.90
10572;DHT22;5334;48.928;12.704;2023-11-19T05:10:52;4.00;99.90
10572;DHT22;5334;48.928;12.704;2023-11-19T05:13:18;4.10;99.90
10572;DHT22;5334;48.928;12.704;2023-11-19T05:15:44;4.00;99.90
10572;DHT22;5334;48.928;12.704;2023-11-19T05:18:09;4.30;99.90
10572;DHT22;5334;48.928;12.704;2023-11-19T05:20:35;4.00;99.90
10572;DHT22;5334;48.928;12.704;2023-11-19T05:23:01;4.00;99.90
10572;DHT22;5334;48.928;12.704;2023-11-19T05:25:27;4.00;99.90
10572;DHT22;5334;48.928;12.704;2023-11-19T05:27:53;4.30;99.90
10572;DHT22;5334;48.928;12.704;2023-11-19T05:30:19;3.80;99.90
10572;DHT22;5334;48.928;12.704;2023-11-19T05:35:11;4.00;99.90
10572;DHT22;5334;48.928;12.704;2023-11-19T05:45:03;3.90;99.90
10572;DHT22;5334;48.928;12.704;2023-11-19T05:47:29;4.00;99.90
10572;DHT22;5334;48.928;12.704;2023-11-19T05:54:48;4.00;99.90
10572;DHT22;5334;48.928;12.704;2023-11-19T05:57:17;3.90;99.90
10572;DHT22;5334;48.928;12.704;2023-11-19T05:59:48;3.90;99.90
10572;DHT22;5334;48.928;12.704;2023-11-19T06:02:13;4.00;99.90
10572;DHT22;5334;48.928;12.704;2023-11-19T06:04:39;4.00;99.90
10572;DHT22;5334;48.928;12.704;2023-11-19T06:07:05;4.00;99.90
10572;DHT22;5334;48.928;12.704;2023-11-19T06:09:31;4.00;99.90
10572;DHT22;5334;48.928;12.704;2023-11-19T06:11:59;4.00;99.90
10572;DHT22;5334;48.928;12.704;2023-11-19T06:14:27;4.10;99.90
10572;DHT22;5334;48.928;12.704;2023-11-19T06:16:53;4.00;99.90
10572;DHT22;5334;48.928;12.704;2023-11-19T06:19:18;4.10;99.90
10572;DHT22;5334;48.928;12.704;2023-11-19T06:21:44;4.00;99.90
10572;DHT22;5334;48.928;12.704;2023-11-19T06:24:10;4.10;99.90
10572;DHT22;5334;48.928;12.704;2023-11-19T06:26:35;4.00;99.90
10572;DHT22;5334;48.928;12.704;2023-11-19T06:29:01;4.00;99.90
10572;DHT22;5334;48.928;12.704;2023-11-19T06:31:26;4.00;99.90
10572;DHT22;5334;48.928;12.704;2023-11-19T06:33:55;4.00;99.90
10572;DHT22;5334;48.928;12.704;2023-11-19T06:36:21;4.00;99.90
10572;DHT22;5334;48.928;12.704;2023-11-19T06:38:47;4.00;99.90
10572;DHT22;5334;48.928;12.704;2023-11-19T06:41:12;4.10;99.90
10572;DHT22;5334;48.928;12.704;2023-11-19T06:43:38;4.10;99.90
10572;DHT22;5334;48.928;12.704;2023-11-19T06:46:04;4.10;99.90
10572;DHT22;5334;48.928;12.704;2023-11-19T06:48:34;4.10;99.90
10572;DHT22;5334;48.928;12.704;2023-11-19T06:51:00;4.10;99.90
10572;DHT22;5334;48.928;12.704;2023-11-19T06:53:26;4.20;99.90
10572;DHT22;5334;48.928;12.704;2023-11-19T06:55:54;4.10;99.90
10572;DHT22;5334;48.928;12.704;2023-11-19T06:58:19;4.20;99.90
10572;DHT22;5334;48.928;12.704;2023-11-19T07:00:45;4.20;99.90
10572;DHT22;5334;48.928;12.704;2023-11-19T07:03:12;4.20;99.90
10572;DHT22;5334;48.928;12.704;2023-11-19T07:05:38;4.20;99.90
10572;DHT22;5334;48.928;12.704;2023-11-19T07:10:32;4.10;99.90
10572;DHT22;5334;48.928;12.704;2023-11-19T07:12:59;4.20;99.90
10572;DHT22;5334;48.928;12.704;2023-11-19T07:15:24;4.20;99.90
10572;DHT22;5334;48.928;12.704;2023-11-19T07:17:50;4.30;99.90
10572;DHT22;5334;48.928;12.704;2023-11-19T07:22:43;4.20;99.90
10572;DHT22;5334;48.928;12.704;2023-11-19T07:25:14;4.20;99.90
10572;DHT22;5334;48.928;12.704;2023-11-19T07:27:40;4.20;99.90
10572;DHT22;5334;48.928;12.704;2023-11-19T07:30:06;4.20;99.90
10572;DHT22;5334;48.928;12.704;2023-11-19T07:32:33;4.30;99.90
10572;DHT22;5334;48.928;12.704;2023-11-19T07:34:58;4.30;99.90
10572;DHT22;5334;48.928;12.704;2023-11-19T07:37:25;4.40;99.90
10572;DHT22;5334;48.928;12.704;2023-11-19T07:39:50;4.40;99.90
10572;DHT22;5334;48.928;12.704;2023-11-19T07:42:16;4.40;99.90
10572;DHT22;5334;48.928;12.704;2023-11-19T07:44:43;4.30;99.90
10572;DHT22;5334;48.928;12.704;2023-11-19T07:47:09;4.40;99.90
10572;DHT22;5334;48.928;12.704;2023-11-19T07:49:35;4.40;99.90
10572;DHT22;5334;48.928;12.704;2023-11-19T07:52:01;4.40;99.90
10572;DHT22;5334;48.928;12.704;2023-11-19T07:54:28;4.40;99.90
10572;DHT22;5334;48.928;12.704;2023-11-19T07:56:54;4.40;99.90
10572;DHT22;5334;48.928;12.704;2023-11-19T08:01:47;5.00;99.90
10572;DHT22;5334;48.928;12.704;2023-11-19T08:06:39;4.50;99.90
10572;DHT22;5334;48.928;12.704;2023-11-19T08:09:05;4.50;99.90
10572;DHT22;5334;48.928;12.704;2023-11-19T08:11:32;4.50;99.90
10572;DHT22;5334;48.928;12.704;2023-11-19T08:13:57;4.60;99.90
10572;DHT22;5334;48.928;12.704;2023-11-19T08:16:23;4.60;99.90
10572;DHT22;5334;48.928;12.704;2023-11-19T08:18:49;4.60;99.90
10572;DHT22;5334;48.928;12.704;2023-11-19T08:21:14;4.60;99.90
10572;DHT22;5334;48.928;12.704;2023-11-19T08:26:06;4.60;99.90
10572;DHT22;5334;48.928;12.704;2023-11-19T08:28:32;4.60;99.90
10572;DHT22;5334;48.928;12.704;2023-11-19T08:30:59;4.60;99.90
10572;DHT22;5334;48.928;12.704;2023-11-19T08:33:26;4.60;99.90
10572;DHT22;5334;48.928;12.704;2023-11-19T08:35:52;4.70;99.90
10572;DHT22;5334;48.928;12.704;2023-11-19T08:38:18;4.60;99.90
10572;DHT22;5334;48.928;12.704;2023-11-19T08:40:44;4.70;99.90
10572;DHT22;5334;48.928;12.704;2023-11-19T08:43:09;4.80;99.90
10572;DHT22;5334;48.928;12.704;2023-11-19T08:45:35;4.80;99.90
10572;DHT22;5334;48.928;12.704;2023-11-19T08:48:01;4.80;99.90
10572;DHT22;5334;48.928;12.704;2023-11-19T08:52:53;4.80;99.90
10572;DHT22;5334;48.928;12.704;2023-11-19T08:55:19;4.90;99.90
10572;DHT22;5334;48.928;12.704;2023-11-19T08:57:44;4.90;99.90
10572;DHT22;5334;48.928;12.704;2023-11-19T09:00:10;4.90;99.90
10572;DHT22;5334;48.928;12.704;2023-11-19T09:02:39;5.00;99.90
10572;DHT22;5334;48.928;12.704;2023-11-19T09:05:05;5.00;99.90
10572;DHT22;5334;48.928;12.704;2023-11-19T09:07:33;5.00;99.90
10572;DHT22;5334;48.928;12.704;2023-11-19T09:09:58;5.10;99.90
10572;DHT22;5334;48.928;12.704;2023-11-19T09:12:24;5.10;99.90
10572;DHT22;5334;48.928;12.704;2023-11-19T09:14:50;5.10;99.90
10572;DHT22;5334;48.928;12.704;2023-11-19T09:17:15;5.10;99.90
10572;DHT22;5334;48.928;12.704;2023-11-19T09:19:42;5.10;99.90
10572;DHT22;5334;48.928;12.704;2023-11-19T09:22:08;5.20;99.90
10572;DHT22;5334;48.928;12.704;2023-11-19T09:24:34;5.20;99.90
10572;DHT22;5334;48.928;12.704;2023-11-19T09:26:59;5.20;99.90
10572;DHT22;5334;48.928;12.704;2023-11-19T09:29:25;5.30;99.90
10572;DHT22;5334;48.928;12.704;2023-11-19T09:31:51;5.20;99.90
10572;DHT22;5334;48.928;12.704;2023-11-19T09:34:17;5.30;99.90
10572;DHT22;5334;48.928;12.704;2023-11-19T09:36:42;5.40;99.90
10572;DHT22;5334;48.928;12.704;2023-11-19T09:39:12;5.30;99.90
10572;DHT22;5334;48.928;12.704;2023-11-19T09:41:40;5.40;99.90
10572;DHT22;5334;48.928;12.704;2023-11-19T09:44:08;5.40;99.90
10572;DHT22;5334;48.928;12.704;2023-11-19T09:46:34;5.50;99.90
10572;DHT22;5334;48.928;12.704;2023-11-19T09:49:01;5.60;99.90
10572;DHT22;5334;48.928;12.704;2023-11-19T09:51:28;5.60;99.90
10572;DHT22;5334;48.928;12.704;2023-11-19T09:53:54;5.60;99.90
10572;DHT22;5334;48.928;12.704;2023-11-19T09:56:19;5.60;99.90
10572;DHT22;5334;48.928;12.704;2023-11-19T09:58:45;5.50;99.90
10572;DHT22;5334;48.928;12.704;2023-11-19T10:01:12;5.60;99.90
10572;DHT22;5334;48.928;12.704;2023-11-19T10:03:39;6.90;99.90
10572;DHT22;5334;48.928;12.704;2023-11-19T10:06:07;5.70;99.90
10572;DHT22;5334;48.928;12.704;2023-11-19T10:08:34;5.70;99.90
10572;DHT22;5334;48.928;12.704;2023-11-19T10:10:59;5.70;99.90
10572;DHT22;5334;48.928;12.704;2023-11-19T10:13:28;5.80;99.90
10572;DHT22;5334;48.928;12.704;2023-11-19T10:15:56;5.80;99.90
10572;DHT22;5334;48.928;12.704;2023-11-19T10:18:27;5.80;99.90
10572;DHT22;5334;48.928;12.704;2023-11-19T10:20:53;5.80;99.90
10572;DHT22;5334;48.928;12.704;2023-11-19T10:23:20;5.90;99.90
10572;DHT22;5334;48.928;12.704;2023-11-19T10:25:46;6.00;99.90
10572;DHT22;5334;48.928;12.704;2023-11-19T10:30:38;6.00;99.90
10572;DHT22;5334;48.928;12.704;2023-11-19T10:33:05;6.10;99.90
10572;DHT22;5334;48.928;12.704;2023-11-19T10:35:32;6.20;99.90
10572;DHT22;5334;48.928;12.704;2023-11-19T10:38:16;6.20;99.90
10572;DHT22;5334;48.928;12.704;2023-11-19T10:40:42;6.30;99.90
10572;DHT22;5334;48.928;12.704;2023-11-19T10:43:08;6.30;99.90
10572;DHT22;5334;48.928;12.704;2023-11-19T10:45:38;6.30;99.90
10572;DHT22;5334;48.928;12.704;2023-11-19T10:48:05;6.40;99.90
10572;DHT22;5334;48.928;12.704;2023-11-19T10:50:38;6.40;99.90
10572;DHT22;5334;48.928;12.704;2023-11-19T10:53:06;6.50;99.90
10572;DHT22;5334;48.928;12.704;2023-11-19T10:55:33;6.60;99.90
10572;DHT22;5334;48.928;12.704;2023-11-19T10:58:04;6.60;99.90
10572;DHT22;5334;48.928;12.704;2023-11-19T11:00:44;6.60;99.90
10572;DHT22;5334;48.928;12.704;2023-11-19T11:03:21;6.60;99.90
10572;DHT22;5334;48.928;12.704;2023-11-19T11:05:48;6.60;99.90
10572;DHT22;5334;48.928;12.704;2023-11-19T11:08:15;6.50;99.90
10572;DHT22;5334;48.928;12.704;2023-11-19T11:11:01;6.60;99.90
10572;DHT22;5334;48.928;12.704;2023-11-19T11:13:27;6.60;99.90
10572;DHT22;5334;48.928;12.704;2023-11-19T11:15:55;6.70;99.90
10572;DHT22;5334;48.928;12.704;2023-11-19T11:18:23;6.80;99.90
10572;DHT22;5334;48.928;12.704;2023-11-19T11:20:52;6.90;99.90
10572;DHT22;5334;48.928;12.704;2023-11-19T11:32:08;7.00;99.90
10572;DHT22;5334;48.928;12.704;2023-11-19T11:37:32;7.10;99.90
10572;DHT22;5334;48.928;12.704;2023-11-19T11:39:59;7.20;99.90
10572;DHT22;5334;48.928;12.704;2023-11-19T11:45:08;7.40;99.90
10572;DHT22;5334;48.928;12.704;2023-11-19T11:50:13;7.50;99.90
10572;DHT22;5334;48.928;12.704;2023-11-19T11:55:35;7.50;99.90
10572;DHT22;5334;48.928;12.704;2023-11-19T11:58:05;7.50;99.90
10572;DHT22;5334;48.928;12.704;2023-11-19T12:00:32;7.50;99.90
10572;DHT22;5334;48.928;12.704;2023-11-19T12:03:02;7.50;99.90
10572;DHT22;5334;48.928;12.704;2023-11-19T12:08:03;7.60;99.90
10572;DHT22;5334;48.928;12.704;2023-11-19T12:10:31;7.70;99.90
10572;DHT22;5334;48.928;12.704;2023-11-19T12:13:06;7.70;99.90
10572;DHT22;5334;48.928;12.704;2023-11-19T12:20:49;8.00;99.90
10572;DHT22;5334;48.928;12.704;2023-11-19T12:23:15;8.10;99.90
10572;DHT22;5334;48.928;12.704;2023-11-19T12:25:41;8.20;99.90
10572;DHT22;5334;48.928;12.704;2023-11-19T12:28:12;8.30;99.90
10572;DHT22;5334;48.928;12.704;2023-11-19T12:30:38;8.30;99.90
10572;DHT22;5334;48.928;12.704;2023-11-19T12:33:08;8.20;99.90
10572;DHT22;5334;48.928;12.704;2023-11-19T12:35:45;8.40;99.90
10572;DHT22;5334;48.928;12.704;2023-11-19T12:38:24;9.00;99.90
10572;DHT22;5334;48.928;12.704;2023-11-19T12:41:10;8.80;99.90
10572;DHT22;5334;48.928;12.704;2023-11-19T12:43:37;8.70;99.90
10572;DHT22;5334;48.928;12.704;2023-11-19T12:46:24;8.60;99.90
10572;DHT22;5334;48.928;12.704;2023-11-19T12:48:51;8.60;99.90
10572;DHT22;5334;48.928;12.704;2023-11-19T12:51:17;8.80;99.90
10572;DHT22;5334;48.928;12.704;2023-11-19T12:53:52;9.00;99.90
10572;DHT22;5334;48.928;12.704;2023-11-19T12:56:21;9.20;99.90
10572;DHT22;5334;48.928;12.704;2023-11-19T13:01:20;9.50;99.90
10572;DHT22;5334;48.928;12.704;2023-11-19T13:03:47;9.40;99.90
10572;DHT22;5334;48.928;12.704;2023-11-19T13:06:14;9.40;99.90
10572;DHT22;5334;48.928;12.704;2023-11-19T13:08:41;9.30;99.90
10572;DHT22;5334;48.928;12.704;2023-11-19T13:11:08;9.20;99.90
10572;DHT22;5334;48.928;12.704;2023-11-19T13:13:53;9.10;99.90
10572;DHT22;5334;48.928;12.704;2023-11-19T13:16:19;9.00;99.90
10572;DHT22;5334;48.928;12.704;2023-11-19T13:18:45;9.00;99.90
10572;DHT22;5334;48.928;12.704;2023-11-19T13:21:10;8.90;99.90
10572;DHT22;5334;48.928;12.704;2023-11-19T13:23:36;8.90;99.90
10572;DHT22;5334;48.928;12.704;2023-11-19T13:26:02;9.30;99.90
10572;DHT22;5334;48.928;12.704;2023-11-19T13:30:55;10.00;99.90
10572;DHT22;5334;48.928;12.704;2023-11-19T13:33:21;10.80;99.90
10572;DHT22;5334;48.928;12.704;2023-11-19T13:35:47;11.70;99.90
10572;DHT22;5334;48.928;12.704;2023-11-19T13:38:12;12.30;99.90
10572;DHT22;5334;48.928;12.704;2023-11-19T13:43:04;13.00;99.90
10572;DHT22;5334;48.928;12.704;2023-11-19T13:45:30;12.90;99.90
10572;DHT22;5334;48.928;12.704;2023-11-19T13:47:56;13.30;99.90
10572;DHT22;5334;48.928;12.704;2023-11-19T13:50:21;14.10;99.90
10572;DHT22;5334;48.928;12.704;2023-11-19T13:52:48;14.80;99.90
10572;DHT22;5334;48.928;12.704;2023-11-19T13:55:14;15.30;99.90
10572;DHT22;5334;48.928;12.704;2023-11-19T13:57:41;15.20;99.90
10572;DHT22;5334;48.928;12.704;2023-11-19T14:00:09;15.40;99.90
10572;DHT22;5334;48.928;12.704;2023-11-19T14:02:42;14.70;99.90
10572;DHT22;5334;48.928;12.704;2023-11-19T14:05:08;15.00;99.90
10572;DHT22;5334;48.928;12.704;2023-11-19T14:07:34;15.20;99.90
10572;DHT22;5334;48.928;12.704;2023-11-19T14:10:00;14.80;99.90
10572;DHT22;5334;48.928;12.704;2023-11-19T14:14:52;14.30;99.90
10572;DHT22;5334;48.928;12.704;2023-11-19T14:17:18;14.30;99.90
10572;DHT22;5334;48.928;12.704;2023-11-19T14:19:44;14.40;99.90
10572;DHT22;5334;48.928;12.704;2023-11-19T14:22:10;14.30;99.90
10572;DHT22;5334;48.928;12.704;2023-11-19T14:27:03;14.00;99.90
10572;DHT22;5334;48.928;12.704;2023-11-19T14:29:28;14.20;99.90
10572;DHT22;5334;48.928;12.704;2023-11-19T14:31:56;14.40;99.90
10572;DHT22;5334;48.928;12.704;2023-11-19T14:34:22;14.50;99.90
10572;DHT22;5334;48.928;12.704;2023-11-19T14:36:48;14.50;99.90
10572;DHT22;5334;48.928;12.704;2023-11-19T14:39:14;13.90;99.90
10572;DHT22;5334;48.928;12.704;2023-11-19T14:41:40;14.10;99.90
10572;DHT22;5334;48.928;12.704;2023-11-19T14:44:06;13.90;99.90
10572;DHT22;5334;48.928;12.704;2023-11-19T14:46:31;13.30;99.90
10572;DHT22;5334;48.928;12.704;2023-11-19T14:48:57;12.40;99.90
10572;DHT22;5334;48.928;12.704;2023-11-19T14:51:23;11.90;99.90
10572;DHT22;5334;48.928;12.704;2023-11-19T14:53:48;11.40;99.90
10572;DHT22;5334;48.928;12.704;2023-11-19T14:56:14;11.00;99.90
10572;DHT22;5334;48.928;12.704;2023-11-19T14:58:40;10.70;99.90
10572;DHT22;5334;48.928;12.704;2023-11-19T15:01:06;10.50;99.90
10572;DHT22;5334;48.928;12.704;2023-11-19T15:03:33;10.30;99.90
10572;DHT22;5334;48.928;12.704;2023-11-19T15:05:59;10.20;99.90
10572;DHT22;5334;48.928;12.704;2023-11-19T15:08:25;10.00;99.90
10572;DHT22;5334;48.928;12.704;2023-11-19T15:10:50;9.80;99.90
10572;DHT22;5334;48.928;12.704;2023-11-19T15:13:16;9.70;99.90
10572;DHT22;5334;48.928;12.704;2023-11-19T15:15:42;9.60;99.90
10572;DHT22;5334;48.928;12.704;2023-11-19T15:18:08;9.50;99.90
10572;DHT22;5334;48.928;12.704;2023-11-19T15:20:35;9.40;99.90
10572;DHT22;5334;48.928;12.704;2023-11-19T15:23:02;9.30;99.90
10572;DHT22;5334;48.928;12.704;2023-11-19T15:25:27;9.30;99.90
10572;DHT22;5334;48.928;12.704;2023-11-19T15:27:53;9.50;99.90
10572;DHT22;5334;48.928;12.704;2023-11-19T15:30:19;9.20;99.90
10572;DHT22;5334;48.928;12.704;2023-11-19T15:32:45;9.00;99.90
10572;DHT22;5334;48.928;12.704;2023-11-19T15:35:12;9.00;99.90
10572;DHT22;5334;48.928;12.704;2023-11-19T15:37:38;9.00;99.90
10572;DHT22;5334;48.928;12.704;2023-11-19T15:40:09;8.80;99.90
10572;DHT22;5334;48.928;12.704;2023-11-19T15:42:38;8.90;99.90
10572;DHT22;5334;48.928;12.704;2023-11-19T15:45:05;8.90;99.90
10572;DHT22;5334;48.928;12.704;2023-11-19T15:47:33;8.80;99.90
10572;DHT22;5334;48.928;12.704;2023-11-19T15:50:01;8.70;99.90
10572;DHT22;5334;48.928;12.704;2023-11-19T15:52:27;8.60;99.90
10572;DHT22;5334;48.928;12.704;2023-11-19T15:54:54;8.60;99.90
10572;DHT22;5334;48.928;12.704;2023-11-19T15:57:20;8.70;99.90
10572;DHT22;5334;48.928;12.704;2023-11-19T15:59:46;8.70;99.90
10572;DHT22;5334;48.928;12.704;2023-11-19T16:02:13;8.60;99.90
10572;DHT22;5334;48.928;12.704;2023-11-19T16:04:39;8.60;99.90
10572;DHT22;5334;48.928;12.704;2023-11-19T16:07:05;8.60;99.90
10572;DHT22;5334;48.928;12.704;2023-11-19T16:09:31;8.50;99.90
10572;DHT22;5334;48.928;12.704;2023-11-19T16:11:57;8.50;99.90
10572;DHT22;5334;48.928;12.704;2023-11-19T16:14:24;8.50;99.90
10572;DHT22;5334;48.928;12.704;2023-11-19T16:16:50;8.40;99.90
10572;DHT22;5334;48.928;12.704;2023-11-19T16:19:16;8.30;99.90
10572;DHT22;5334;48.928;12.704;2023-11-19T16:21:43;8.30;99.90
10572;DHT22;5334;48.928;12.704;2023-11-19T16:24:09;8.20;99.90
10572;DHT22;5334;48.928;12.704;2023-11-19T16:26:34;8.20;99.90
10572;DHT22;5334;48.928;12.704;2023-11-19T16:29:02;8.10;99.90
10572;DHT22;5334;48.928;12.704;2023-11-19T16:31:28;8.10;99.90
10572;DHT22;5334;48.928;12.704;2023-11-19T16:33:54;8.10;99.90
10572;DHT22;5334;48.928;12.704;2023-11-19T16:36:20;8.10;99.90
10572;DHT22;5334;48.928;12.704;2023-11-19T16:38:46;8.10;99.90
10572;DHT22;5334;48.928;12.704;2023-11-19T16:41:18;8.10;99.90
10572;DHT22;5334;48.928;12.704;2023-11-19T16:43:48;8.10;99.90
10572;DHT22;5334;48.928;12.704;2023-11-19T16:46:15;8.10;99.90
10572;DHT22;5334;48.928;12.704;2023-11-19T16:48:41;8.00;99.90
10572;DHT22;5334;48.928;12.704;2023-11-19T16:51:11;8.00;99.90
10572;DHT22;5334;48.928;12.704;2023-11-19T16:53:44;7.90;99.90
10572;DHT22;5334;48.928;12.704;2023-11-19T16:56:10;7.80;99.90
10572;DHT22;5334;48.928;12.704;2023-11-19T16:58:36;7.80;99.90
10572;DHT22;5334;48.928;12.704;2023-11-19T17:01:02;7.70;99.90
10572;DHT22;5334;48.928;12.704;2023-11-19T17:03:28;7.60;99.90
10572;DHT22;5334;48.928;12.704;2023-11-19T17:05:54;7.50;99.90
10572;DHT22;5334;48.928;12.704;2023-11-19T17:08:20;7.50;99.90
10572;DHT22;5334;48.928;12.704;2023-11-19T17:10:45;7.40;99.90
10572;DHT22;5334;48.928;12.704;2023-11-19T17:13:12;7.40;99.90
10572;DHT22;5334;48.928;12.704;2023-11-19T17:15:38;7.30;99.90
10572;DHT22;5334;48.928;12.704;2023-11-19T17:18:04;7.30;99.90
10572;DHT22;5334;48.928;12.704;2023-11-19T17:20:30;7.30;99.90